createdAt,value
2022-10-05T00:04:46.555Z,88.42
2022-10-05T00:09:55.287Z,88.93
2022-10-05T00:15:00.573Z,89.28
2022-10-05T00:20:15.176Z,90.81
2022-10-05T00:25:20.854Z,91.11
2022-10-05T00:30:23.416Z,89.70
2022-10-05T00:35:25.160Z,90.52
2022-10-05T00:40:40.501Z,90.49
2022-10-05T00:45:57.511Z,90.31
2022-10-05T00:51:05.028Z,90.86
2022-10-05T00:56:10.948Z,90.91
2022-10-05T01:01:21.575Z,92.37
2022-10-05T01:06:41.708Z,89.71
2022-10-05T01:11:48.879Z,90.96
2022-10-05T01:16:58.852Z,90.71
2022-10-05T01:22:38.987Z,91.88
2022-10-05T01:27:57.789Z,92.43
2022-10-05T01:33:07.183Z,90.86
2022-10-05T01:38:14.551Z,91.06
2022-10-05T01:43:29.669Z,92.08
2022-10-05T01:48:36.768Z,91.93
2022-10-05T01:53:56.006Z,92.58
2022-10-05T01:59:21.212Z,92.32
2022-10-05T02:05:00.458Z,92.75
2022-10-05T02:10:04.477Z,91.71
2022-10-05T02:15:22.540Z,92.61
2022-10-05T02:20:28.216Z,93.06
2022-10-05T02:25:34.894Z,93.24
2022-10-05T02:30:43.067Z,91.54
2022-10-05T02:35:44.408Z,91.50
2022-10-05T02:40:45.612Z,93.11
2022-10-05T02:45:58.656Z,93.68
2022-10-05T02:51:23.186Z,92.90
2022-10-05T02:56:39.796Z,93.32
2022-10-05T03:01:50.336Z,93.79
2022-10-05T03:07:14.083Z,93.44
2022-10-05T03:12:38.089Z,94.01
2022-10-05T03:18:02.457Z,94.38
2022-10-05T03:23:09.569Z,94.45
2022-10-05T03:28:38.774Z,93.63
2022-10-05T03:33:59.062Z,93.67
2022-10-05T03:39:09.385Z,94.05
2022-10-05T03:44:25.087Z,94.14
2022-10-05T03:49:57.006Z,94.38
2022-10-05T03:55:21.092Z,94.16
2022-10-05T04:00:23.438Z,93.34
2022-10-05T04:05:29.742Z,93.85
2022-10-05T04:10:49.397Z,93.82
2022-10-05T04:16:10.262Z,94.42
2022-10-05T04:21:23.649Z,94.09
2022-10-05T04:26:54.357Z,94.34
2022-10-05T04:32:07.600Z,94.50
2022-10-05T04:37:33.563Z,92.89
2022-10-05T04:43:04.996Z,93.42
2022-10-05T04:48:18.541Z,93.85
2022-10-05T04:53:39.338Z,93.71
2022-10-05T04:59:11.695Z,93.12
2022-10-05T05:04:18.677Z,92.97
2022-10-05T05:09:50.861Z,92.87
2022-10-05T05:15:07.216Z,93.61
2022-10-05T05:20:31.032Z,92.74
2022-10-05T05:26:00.141Z,92.13
2022-10-05T05:31:12.967Z,92.32
2022-10-05T05:36:23.521Z,91.99
2022-10-05T05:41:37.079Z,92.54
2022-10-05T05:47:04.745Z,92.40
2022-10-05T05:52:25.465Z,91.82
2022-10-05T05:57:38.411Z,92.32
2022-10-05T06:02:53.374Z,92.39
2022-10-05T06:07:57.718Z,93.04
2022-10-05T06:13:06.322Z,92.58
2022-10-05T06:18:13.978Z,92.13
2022-10-05T06:23:27.072Z,92.73
2022-10-05T06:28:29.730Z,92.38
2022-10-05T06:33:33.756Z,92.30
2022-10-05T06:38:44.471Z,92.41
2022-10-05T06:44:04.513Z,92.36
2022-10-05T06:49:18.352Z,91.18
2022-10-05T06:54:28.715Z,91.62
2022-10-05T06:59:44.993Z,91.59
2022-10-05T07:05:04.977Z,91.87
2022-10-05T07:10:25.141Z,91.74
2022-10-05T07:15:40.832Z,91.19
2022-10-05T07:20:51.100Z,91.20
2022-10-05T07:26:14.730Z,91.25
2022-10-05T07:31:28.381Z,91.10
2022-10-05T07:37:09.106Z,90.69
2022-10-05T07:42:22.880Z,91.16
2022-10-05T07:47:54.964Z,90.42
2022-10-05T07:53:15.442Z,90.66
2022-10-05T07:58:41.641Z,90.09
2022-10-05T08:03:45.349Z,90.15
2022-10-05T08:08:57.330Z,90.38
2022-10-05T08:14:06.190Z,90.41
2022-10-05T08:19:23.134Z,90.12
2022-10-05T08:25:02.721Z,90.01
2022-10-05T08:30:15.696Z,89.34
2022-10-05T08:35:34.018Z,89.57
2022-10-05T08:40:51.713Z,89.51
2022-10-05T08:45:59.211Z,89.03
2022-10-05T08:51:21.777Z,88.28
2022-10-05T08:56:37.165Z,87.91
2022-10-05T09:01:52.772Z,87.97
2022-10-05T09:07:02.126Z,88.01
2022-10-05T09:12:39.670Z,88.10
2022-10-05T09:18:07.100Z,87.63
2022-10-05T09:23:33.406Z,86.12
2022-10-05T09:29:09.472Z,86.30
2022-10-05T09:34:32.534Z,85.85
2022-10-05T09:39:52.172Z,86.66
2022-10-05T09:45:21.355Z,86.30
2022-10-05T09:50:37.988Z,84.44
2022-10-05T09:56:01.156Z,85.80
2022-10-05T10:01:33.037Z,84.13
2022-10-05T10:07:04.831Z,83.43
2022-10-05T10:12:22.390Z,82.53
2022-10-05T10:17:41.825Z,82.79
2022-10-05T10:23:01.733Z,82.97
2022-10-05T10:28:34.328Z,82.61
2022-10-05T10:33:52.862Z,82.70
2022-10-05T10:39:02.038Z,83.38
2022-10-05T10:44:31.355Z,83.31
2022-10-05T10:49:44.640Z,81.61
2022-10-05T10:55:10.475Z,82.16
2022-10-05T11:00:33.457Z,82.05
2022-10-05T11:05:52.968Z,81.12
2022-10-05T11:11:03.735Z,79.62
2022-10-05T11:16:38.604Z,81.51
2022-10-05T11:22:00.486Z,79.69
2022-10-05T11:27:28.788Z,77.90
2022-10-05T11:33:03.881Z,79.21
2022-10-05T11:38:18.928Z,80.43
2022-10-05T11:43:44.961Z,76.98
2022-10-05T11:49:17.052Z,77.51
2022-10-05T11:55:13.933Z,76.91
2022-10-05T12:00:15.940Z,76.25
2022-10-05T12:05:38.377Z,77.54
2022-10-05T12:11:00.561Z,78.00
2022-10-05T12:16:08.215Z,76.79
2022-10-05T12:21:27.559Z,78.13
2022-10-05T12:26:52.935Z,75.73
2022-10-05T12:32:11.625Z,73.98
2022-10-05T12:37:15.704Z,76.17
2022-10-05T12:42:42.055Z,75.49
2022-10-05T12:48:12.324Z,74.48
2022-10-05T12:53:40.829Z,74.85
2022-10-05T12:59:04.314Z,75.89
2022-10-05T13:04:47.210Z,75.62
2022-10-05T13:10:02.589Z,74.21
2022-10-05T13:15:22.197Z,74.75
2022-10-05T13:20:35.378Z,74.61
2022-10-05T13:25:46.697Z,72.98
2022-10-05T13:31:02.767Z,73.16
2022-10-05T13:36:43.165Z,71.05
2022-10-05T13:42:01.429Z,72.78
2022-10-05T13:47:19.152Z,71.50
2022-10-05T13:52:27.221Z,73.51
2022-10-05T13:57:57.344Z,71.43
2022-10-05T14:03:00.779Z,73.92
2022-10-05T14:08:02.136Z,74.57
2022-10-05T14:13:48.884Z,74.42
2022-10-05T14:19:03.548Z,75.88
2022-10-05T14:24:45.297Z,72.22
2022-10-05T14:29:55.770Z,74.28
2022-10-05T14:34:59.909Z,72.56
2022-10-05T14:40:21.266Z,71.02
2022-10-05T14:45:25.641Z,73.95
2022-10-05T14:50:32.050Z,71.17
2022-10-05T14:56:00.650Z,71.92
2022-10-05T15:01:14.536Z,73.88
2022-10-05T15:06:23.229Z,70.18
2022-10-05T15:11:37.045Z,74.34
2022-10-05T15:16:40.391Z,73.86
2022-10-05T15:22:10.283Z,74.81
2022-10-05T15:27:36.529Z,74.15
2022-10-05T15:32:55.990Z,75.65
2022-10-05T15:38:20.864Z,73.97
2022-10-05T15:43:23.292Z,74.46
2022-10-05T15:48:58.151Z,74.98
2022-10-05T15:54:24.995Z,74.58
2022-10-05T15:59:41.198Z,75.45
2022-10-05T16:05:03.922Z,75.85
2022-10-05T16:10:21.494Z,75.88
2022-10-05T16:15:35.922Z,76.40
2022-10-05T16:20:52.851Z,75.75
2022-10-05T16:26:22.095Z,75.67
2022-10-05T16:31:37.239Z,75.02
2022-10-05T16:36:40.261Z,75.44
2022-10-05T16:42:03.813Z,75.47
2022-10-05T16:47:45.656Z,75.15
2022-10-05T16:52:55.905Z,75.10
2022-10-05T16:58:00.207Z,75.37
2022-10-05T17:03:11.180Z,75.03
2022-10-05T17:09:03.009Z,75.73
2022-10-05T17:14:27.966Z,76.13
2022-10-05T17:20:00.268Z,76.37
2022-10-05T17:25:14.299Z,75.26
2022-10-05T17:30:21.914Z,75.50
2022-10-05T17:35:51.721Z,75.36
2022-10-05T17:41:15.268Z,75.79
2022-10-05T17:46:47.862Z,75.81
2022-10-05T17:52:07.946Z,75.56
2022-10-05T17:57:09.215Z,75.23
2022-10-05T18:02:19.515Z,75.45
2022-10-05T18:07:23.781Z,75.20
2022-10-05T18:12:38.590Z,74.52
2022-10-05T18:17:51.322Z,75.52
2022-10-05T18:22:54.572Z,74.53
2022-10-05T18:28:19.941Z,75.13
2022-10-05T18:33:40.086Z,76.12
2022-10-05T18:38:41.674Z,75.19
2022-10-05T18:43:45.635Z,75.26
2022-10-05T18:49:05.480Z,75.35
2022-10-05T18:54:28.325Z,75.35
2022-10-05T18:59:41.522Z,75.10
2022-10-05T19:05:23.656Z,74.65
2022-10-05T19:11:10.218Z,76.31
2022-10-05T19:16:26.799Z,75.89
2022-10-05T19:21:41.309Z,76.03
2022-10-05T19:27:03.031Z,75.57
2022-10-05T19:32:22.927Z,75.18
2022-10-05T19:37:31.401Z,76.01
2022-10-05T19:42:38.677Z,76.09
2022-10-05T19:47:42.770Z,74.70
2022-10-05T19:52:49.088Z,76.52
2022-10-05T19:57:54.120Z,76.36
2022-10-05T20:03:17.207Z,76.83
2022-10-05T20:08:20.911Z,75.45
2022-10-05T20:13:22.991Z,75.28
2022-10-05T20:19:02.964Z,76.71
2022-10-05T20:24:08.701Z,77.18
2022-10-05T20:29:10.075Z,76.77
2022-10-05T20:34:11.420Z,76.94
2022-10-05T20:39:15.725Z,77.60
2022-10-05T20:44:17.064Z,77.44
2022-10-05T20:49:18.390Z,77.79
2022-10-05T20:54:19.784Z,78.04
2022-10-05T20:59:25.157Z,78.25
2022-10-05T21:04:30.215Z,78.64
2022-10-05T21:09:34.163Z,78.55
2022-10-05T21:14:36.541Z,78.25
2022-10-05T21:19:40.829Z,78.19
2022-10-05T21:24:42.232Z,78.80
2022-10-05T21:29:44.153Z,79.42
2022-10-05T21:34:45.525Z,80.07
2022-10-05T21:39:46.851Z,81.49
2022-10-05T21:44:48.177Z,82.51
2022-10-05T21:49:49.708Z,81.54
2022-10-05T21:54:51.173Z,81.88
2022-10-05T21:59:52.605Z,81.30
2022-10-05T22:04:53.986Z,81.19
2022-10-05T22:09:55.397Z,81.46
2022-10-05T22:14:56.720Z,80.44
2022-10-05T22:19:59.184Z,81.54
2022-10-05T22:25:00.510Z,81.97
2022-10-05T22:30:02.997Z,82.34
2022-10-05T22:35:09.096Z,82.15
2022-10-05T22:40:12.656Z,82.59
2022-10-05T22:45:14.207Z,85.23
2022-10-05T22:50:15.630Z,86.52
2022-10-05T22:55:16.942Z,86.24
2022-10-05T23:00:18.679Z,85.90
2022-10-05T23:05:19.982Z,85.99
2022-10-05T23:10:21.329Z,85.55
2022-10-05T23:15:26.064Z,85.71
2022-10-05T23:20:27.413Z,85.62
2022-10-05T23:25:28.759Z,84.84
2022-10-05T23:30:30.231Z,84.30
2022-10-05T23:35:31.636Z,84.37
2022-10-05T23:40:33.453Z,83.89
2022-10-05T23:45:34.921Z,84.06
2022-10-05T23:50:36.337Z,83.67
2022-10-05T23:55:37.620Z,84.09
